sensor_id;sensor_type;location;lat;lon;timestamp;P1;durP1;ratioP1;P2;durP2;ratioP2
18793;SDS011;29610;49.022;12.114;2023-04-19T00:01:35;23.27;;;12.60;;
18793;SDS011;29610;49.022;12.114;2023-04-19T00:04:25;21.67;;;11.83;;
18793;SDS011;29610;49.022;12.114;2023-04-19T00:07:14;22.60;;;11.70;;
18793;SDS011;29610;49.022;12.114;2023-04-19T00:10:06;22.37;;;11.33;;
18793;SDS011;29610;49.022;12.114;2023-04-19T00:12:57;18.70;;;9.70;;
18793;SDS011;29610;49.022;12.114;2023-04-19T00:15:46;26.67;;;11.87;;
18793;SDS011;29610;49.022;12.114;2023-04-19T00:18:35;19.67;;;10.70;;
18793;SDS011;29610;49.022;12.114;2023-04-19T00:21:24;23.20;;;12.07;;
18793;SDS011;29610;49.022;12.114;2023-04-19T00:24:13;25.67;;;12.10;;
18793;SDS011;29610;49.022;12.114;2023-04-19T00:27:04;26.60;;;13.47;;
18793;SDS011;29610;49.022;12.114;2023-04-19T00:29:52;20.47;;;11.33;;
18793;SDS011;29610;49.022;12.114;2023-04-19T00:32:44;19.93;;;11.47;;
18793;SDS011;29610;49.022;12.114;2023-04-19T00:35:33;22.70;;;11.20;;
18793;SDS011;29610;49.022;12.114;2023-04-19T00:38:22;23.67;;;13.00;;
18793;SDS011;29610;49.022;12.114;2023-04-19T00:41:11;23.07;;;11.00;;
18793;SDS011;29610;49.022;12.114;2023-04-19T00:44:01;24.47;;;13.57;;
18793;SDS011;29610;49.022;12.114;2023-04-19T00:46:52;27.23;;;12.67;;
18793;SDS011;29610;49.022;12.114;2023-04-19T00:49:42;24.90;;;12.23;;
18793;SDS011;29610;49.022;12.114;2023-04-19T00:52:32;22.43;;;12.37;;
18793;SDS011;29610;49.022;12.114;2023-04-19T00:55:22;25.77;;;12.03;;
18793;SDS011;29610;49.022;12.114;2023-04-19T00:58:12;26.30;;;13.50;;
18793;SDS011;29610;49.022;12.114;2023-04-19T01:01:02;24.97;;;11.50;;
18793;SDS011;29610;49.022;12.114;2023-04-19T01:03:52;28.20;;;13.50;;
18793;SDS011;29610;49.022;12.114;2023-04-19T01:06:41;25.80;;;12.90;;
18793;SDS011;29610;49.022;12.114;2023-04-19T01:09:30;27.77;;;12.73;;
18793;SDS011;29610;49.022;12.114;2023-04-19T01:12:19;27.40;;;13.60;;
18793;SDS011;29610;49.022;12.114;2023-04-19T01:15:09;25.67;;;13.10;;
18793;SDS011;29610;49.022;12.114;2023-04-19T01:18:00;24.50;;;12.50;;
18793;SDS011;29610;49.022;12.114;2023-04-19T01:20:49;26.40;;;13.83;;
18793;SDS011;29610;49.022;12.114;2023-04-19T01:23:40;27.37;;;12.83;;
18793;SDS011;29610;49.022;12.114;2023-04-19T01:26:29;26.60;;;13.03;;
18793;SDS011;29610;49.022;12.114;2023-04-19T01:29:21;29.87;;;14.37;;
18793;SDS011;29610;49.022;12.114;2023-04-19T01:32:10;27.47;;;13.10;;
18793;SDS011;29610;49.022;12.114;2023-04-19T01:34:59;34.47;;;15.50;;
18793;SDS011;29610;49.022;12.114;2023-04-19T01:37:49;26.07;;;13.00;;
18793;SDS011;29610;49.022;12.114;2023-04-19T01:40:42;25.27;;;13.27;;
18793;SDS011;29610;49.022;12.114;2023-04-19T01:43:32;28.50;;;15.10;;
18793;SDS011;29610;49.022;12.114;2023-04-19T01:46:22;32.13;;;14.80;;
18793;SDS011;29610;49.022;12.114;2023-04-19T01:49:11;32.50;;;16.67;;
18793;SDS011;29610;49.022;12.114;2023-04-19T01:52:01;30.90;;;15.67;;
18793;SDS011;29610;49.022;12.114;2023-04-19T01:54:51;26.83;;;13.23;;
18793;SDS011;29610;49.022;12.114;2023-04-19T01:57:41;27.13;;;13.50;;
18793;SDS011;29610;49.022;12.114;2023-04-19T02:00:30;32.67;;;15.60;;
18793;SDS011;29610;49.022;12.114;2023-04-19T02:03:23;32.97;;;15.37;;
18793;SDS011;29610;49.022;12.114;2023-04-19T02:06:12;29.10;;;15.57;;
18793;SDS011;29610;49.022;12.114;2023-04-19T02:09:01;39.57;;;16.90;;
18793;SDS011;29610;49.022;12.114;2023-04-19T02:11:50;30.67;;;15.10;;
18793;SDS011;29610;49.022;12.114;2023-04-19T02:14:42;30.53;;;15.00;;
18793;SDS011;29610;49.022;12.114;2023-04-19T02:17:31;30.60;;;15.27;;
18793;SDS011;29610;49.022;12.114;2023-04-19T02:20:20;32.93;;;16.10;;
18793;SDS011;29610;49.022;12.114;2023-04-19T02:23:10;31.00;;;16.17;;
18793;SDS011;29610;49.022;12.114;2023-04-19T02:26:00;30.33;;;15.10;;
18793;SDS011;29610;49.022;12.114;2023-04-19T02:28:49;34.97;;;16.43;;
18793;SDS011;29610;49.022;12.114;2023-04-19T02:31:40;32.57;;;16.40;;
18793;SDS011;29610;49.022;12.114;2023-04-19T02:34:31;30.97;;;15.40;;
18793;SDS011;29610;49.022;12.114;2023-04-19T02:37:20;31.13;;;14.70;;
18793;SDS011;29610;49.022;12.114;2023-04-19T02:40:09;35.00;;;16.33;;
18793;SDS011;29610;49.022;12.114;2023-04-19T02:42:59;34.60;;;18.87;;
18793;SDS011;29610;49.022;12.114;2023-04-19T02:45:48;36.80;;;15.77;;
18793;SDS011;29610;49.022;12.114;2023-04-19T02:48:41;35.90;;;15.87;;
18793;SDS011;29610;49.022;12.114;2023-04-19T02:51:30;34.07;;;18.00;;
18793;SDS011;29610;49.022;12.114;2023-04-19T02:54:19;35.97;;;16.90;;
18793;SDS011;29610;49.022;12.114;2023-04-19T02:57:10;36.27;;;16.77;;
18793;SDS011;29610;49.022;12.114;2023-04-19T03:00:02;35.40;;;16.93;;
18793;SDS011;29610;49.022;12.114;2023-04-19T03:02:53;32.63;;;15.80;;
18793;SDS011;29610;49.022;12.114;2023-04-19T03:05:44;34.63;;;17.20;;
18793;SDS011;29610;49.022;12.114;2023-04-19T03:08:33;38.70;;;18.77;;
18793;SDS011;29610;49.022;12.114;2023-04-19T03:11:22;32.90;;;15.27;;
18793;SDS011;29610;49.022;12.114;2023-04-19T03:14:12;38.50;;;16.33;;
18793;SDS011;29610;49.022;12.114;2023-04-19T03:17:02;42.90;;;18.10;;
18793;SDS011;29610;49.022;12.114;2023-04-19T03:19:51;38.00;;;18.63;;
18793;SDS011;29610;49.022;12.114;2023-04-19T03:22:42;39.37;;;17.60;;
18793;SDS011;29610;49.022;12.114;2023-04-19T03:25:30;39.77;;;18.27;;
18793;SDS011;29610;49.022;12.114;2023-04-19T03:28:33;38.10;;;17.20;;
18793;SDS011;29610;49.022;12.114;2023-04-19T03:31:54;39.30;;;18.23;;
18793;SDS011;29610;49.022;12.114;2023-04-19T03:34:43;43.47;;;19.57;;
18793;SDS011;29610;49.022;12.114;2023-04-19T03:37:34;37.80;;;17.43;;
18793;SDS011;29610;49.022;12.114;2023-04-19T03:40:25;36.77;;;17.07;;
18793;SDS011;29610;49.022;12.114;2023-04-19T03:43:14;41.40;;;20.27;;
18793;SDS011;29610;49.022;12.114;2023-04-19T03:46:03;36.73;;;18.57;;
18793;SDS011;29610;49.022;12.114;2023-04-19T03:48:53;36.90;;;19.00;;
18793;SDS011;29610;49.022;12.114;2023-04-19T03:51:42;43.67;;;20.10;;
18793;SDS011;29610;49.022;12.114;2023-04-19T03:54:31;44.43;;;18.80;;
18793;SDS011;29610;49.022;12.114;2023-04-19T03:57:23;35.90;;;17.43;;
18793;SDS011;29610;49.022;12.114;2023-04-19T04:00:13;39.20;;;17.47;;
18793;SDS011;29610;49.022;12.114;2023-04-19T04:03:07;44.90;;;20.00;;
18793;SDS011;29610;49.022;12.114;2023-04-19T04:05:57;41.80;;;18.50;;
18793;SDS011;29610;49.022;12.114;2023-04-19T04:08:47;42.53;;;20.27;;
18793;SDS011;29610;49.022;12.114;2023-04-19T04:11:36;40.47;;;19.30;;
18793;SDS011;29610;49.022;12.114;2023-04-19T04:14:27;43.70;;;19.87;;
18793;SDS011;29610;49.022;12.114;2023-04-19T04:17:16;46.67;;;21.10;;
18793;SDS011;29610;49.022;12.114;2023-04-19T04:20:05;43.03;;;20.17;;
18793;SDS011;29610;49.022;12.114;2023-04-19T04:22:58;40.90;;;19.80;;
18793;SDS011;29610;49.022;12.114;2023-04-19T04:25:54;42.40;;;20.93;;
18793;SDS011;29610;49.022;12.114;2023-04-19T04:28:55;44.27;;;19.97;;
18793;SDS011;29610;49.022;12.114;2023-04-19T04:31:46;39.40;;;19.57;;
18793;SDS011;29610;49.022;12.114;2023-04-19T04:34:37;39.77;;;20.17;;
18793;SDS011;29610;49.022;12.114;2023-04-19T04:37:32;46.47;;;19.83;;
18793;SDS011;29610;49.022;12.114;2023-04-19T04:40:23;45.40;;;21.70;;
18793;SDS011;29610;49.022;12.114;2023-04-19T04:43:12;52.90;;;21.00;;
18793;SDS011;29610;49.022;12.114;2023-04-19T04:46:01;53.63;;;23.30;;
18793;SDS011;29610;49.022;12.114;2023-04-19T04:48:58;43.90;;;20.50;;
18793;SDS011;29610;49.022;12.114;2023-04-19T04:51:46;43.30;;;20.97;;
18793;SDS011;29610;49.022;12.114;2023-04-19T04:54:36;40.63;;;19.90;;
18793;SDS011;29610;49.022;12.114;2023-04-19T04:57:37;41.70;;;20.30;;
18793;SDS011;29610;49.022;12.114;2023-04-19T05:00:35;43.23;;;19.77;;
18793;SDS011;29610;49.022;12.114;2023-04-19T05:03:27;34.43;;;18.20;;
18793;SDS011;29610;49.022;12.114;2023-04-19T05:06:20;38.03;;;19.37;;
18793;SDS011;29610;49.022;12.114;2023-04-19T05:09:10;42.00;;;21.80;;
18793;SDS011;29610;49.022;12.114;2023-04-19T05:11:59;33.83;;;18.80;;
18793;SDS011;29610;49.022;12.114;2023-04-19T05:14:50;38.60;;;18.77;;
18793;SDS011;29610;49.022;12.114;2023-04-19T05:17:40;43.57;;;20.70;;
18793;SDS011;29610;49.022;12.114;2023-04-19T05:20:30;38.10;;;19.10;;
18793;SDS011;29610;49.022;12.114;2023-04-19T05:23:31;38.80;;;19.20;;
18793;SDS011;29610;49.022;12.114;2023-04-19T05:26:20;33.67;;;17.47;;
18793;SDS011;29610;49.022;12.114;2023-04-19T05:29:10;34.33;;;17.50;;
18793;SDS011;29610;49.022;12.114;2023-04-19T05:32:05;32.33;;;16.93;;
18793;SDS011;29610;49.022;12.114;2023-04-19T05:35:04;37.40;;;17.37;;
18793;SDS011;29610;49.022;12.114;2023-04-19T05:37:54;34.13;;;17.17;;
18793;SDS011;29610;49.022;12.114;2023-04-19T05:40:45;33.90;;;16.90;;
18793;SDS011;29610;49.022;12.114;2023-04-19T05:43:34;38.80;;;17.90;;
18793;SDS011;29610;49.022;12.114;2023-04-19T05:46:23;34.67;;;15.30;;
18793;SDS011;29610;49.022;12.114;2023-04-19T05:49:13;33.30;;;16.37;;
18793;SDS011;29610;49.022;12.114;2023-04-19T05:52:02;31.77;;;16.67;;
18793;SDS011;29610;49.022;12.114;2023-04-19T05:54:59;31.40;;;16.07;;
18793;SDS011;29610;49.022;12.114;2023-04-19T05:57:50;33.67;;;17.10;;
18793;SDS011;29610;49.022;12.114;2023-04-19T06:00:43;35.40;;;16.93;;
18793;SDS011;29610;49.022;12.114;2023-04-19T06:03:36;34.27;;;18.23;;
18793;SDS011;29610;49.022;12.114;2023-04-19T06:06:26;32.53;;;17.53;;
18793;SDS011;29610;49.022;12.114;2023-04-19T06:09:17;32.80;;;15.40;;
18793;SDS011;29610;49.022;12.114;2023-04-19T06:12:06;31.43;;;14.97;;
18793;SDS011;29610;49.022;12.114;2023-04-19T06:14:56;30.17;;;16.40;;
18793;SDS011;29610;49.022;12.114;2023-04-19T06:17:45;33.20;;;15.80;;
18793;SDS011;29610;49.022;12.114;2023-04-19T06:20:35;29.70;;;14.53;;
18793;SDS011;29610;49.022;12.114;2023-04-19T06:23:26;24.87;;;13.27;;
18793;SDS011;29610;49.022;12.114;2023-04-19T06:26:15;26.10;;;13.80;;
18793;SDS011;29610;49.022;12.114;2023-04-19T06:29:04;33.37;;;16.37;;
18793;SDS011;29610;49.022;12.114;2023-04-19T06:31:54;27.03;;;13.40;;
18793;SDS011;29610;49.022;12.114;2023-04-19T06:34:43;27.07;;;14.53;;
18793;SDS011;29610;49.022;12.114;2023-04-19T06:37:32;28.30;;;14.03;;
18793;SDS011;29610;49.022;12.114;2023-04-19T06:40:21;25.93;;;13.10;;
18793;SDS011;29610;49.022;12.114;2023-04-19T06:43:10;27.57;;;13.63;;
18793;SDS011;29610;49.022;12.114;2023-04-19T06:45:59;25.60;;;14.17;;
18793;SDS011;29610;49.022;12.114;2023-04-19T06:48:52;24.00;;;13.63;;
18793;SDS011;29610;49.022;12.114;2023-04-19T06:51:41;32.33;;;16.20;;
18793;SDS011;29610;49.022;12.114;2023-04-19T06:54:30;26.33;;;13.90;;
18793;SDS011;29610;49.022;12.114;2023-04-19T06:57:19;33.77;;;15.30;;
18793;SDS011;29610;49.022;12.114;2023-04-19T07:00:09;29.07;;;15.67;;
18793;SDS011;29610;49.022;12.114;2023-04-19T07:02:59;25.37;;;14.60;;
18793;SDS011;29610;49.022;12.114;2023-04-19T07:05:50;27.63;;;14.20;;
18793;SDS011;29610;49.022;12.114;2023-04-19T07:08:42;33.60;;;15.13;;
18793;SDS011;29610;49.022;12.114;2023-04-19T07:11:37;24.27;;;13.10;;
18793;SDS011;29610;49.022;12.114;2023-04-19T07:14:26;26.33;;;13.73;;
18793;SDS011;29610;49.022;12.114;2023-04-19T07:17:15;36.10;;;15.87;;
18793;SDS011;29610;49.022;12.114;2023-04-19T07:20:05;31.03;;;15.57;;
18793;SDS011;29610;49.022;12.114;2023-04-19T07:22:57;30.50;;;16.33;;
18793;SDS011;29610;49.022;12.114;2023-04-19T07:25:46;32.40;;;14.80;;
18793;SDS011;29610;49.022;12.114;2023-04-19T07:28:37;31.67;;;14.70;;
18793;SDS011;29610;49.022;12.114;2023-04-19T07:31:27;31.20;;;15.87;;
18793;SDS011;29610;49.022;12.114;2023-04-19T07:34:18;35.97;;;16.27;;
18793;SDS011;29610;49.022;12.114;2023-04-19T07:37:07;29.30;;;15.07;;
18793;SDS011;29610;49.022;12.114;2023-04-19T07:39:57;33.40;;;16.23;;
18793;SDS011;29610;49.022;12.114;2023-04-19T07:42:47;35.47;;;17.60;;
18793;SDS011;29610;49.022;12.114;2023-04-19T07:45:35;30.70;;;15.70;;
18793;SDS011;29610;49.022;12.114;2023-04-19T07:48:25;32.37;;;16.53;;
18793;SDS011;29610;49.022;12.114;2023-04-19T07:51:14;39.90;;;17.00;;
18793;SDS011;29610;49.022;12.114;2023-04-19T07:54:05;27.37;;;13.97;;
18793;SDS011;29610;49.022;12.114;2023-04-19T07:56:55;37.30;;;16.43;;
18793;SDS011;29610;49.022;12.114;2023-04-19T07:59:44;29.07;;;16.67;;
18793;SDS011;29610;49.022;12.114;2023-04-19T08:02:33;31.40;;;15.40;;
18793;SDS011;29610;49.022;12.114;2023-04-19T08:05:25;31.37;;;16.10;;
18793;SDS011;29610;49.022;12.114;2023-04-19T08:08:14;34.80;;;16.30;;
18793;SDS011;29610;49.022;12.114;2023-04-19T08:11:03;31.40;;;16.40;;
18793;SDS011;29610;49.022;12.114;2023-04-19T08:13:54;38.47;;;16.50;;
18793;SDS011;29610;49.022;12.114;2023-04-19T08:16:46;31.50;;;16.87;;
18793;SDS011;29610;49.022;12.114;2023-04-19T08:19:44;28.83;;;16.97;;
18793;SDS011;29610;49.022;12.114;2023-04-19T08:22:33;39.33;;;18.23;;
18793;SDS011;29610;49.022;12.114;2023-04-19T08:25:24;33.27;;;16.90;;
18793;SDS011;29610;49.022;12.114;2023-04-19T08:28:14;32.40;;;16.50;;
18793;SDS011;29610;49.022;12.114;2023-04-19T08:31:05;36.33;;;17.97;;
18793;SDS011;29610;49.022;12.114;2023-04-19T08:33:57;27.50;;;15.37;;
18793;SDS011;29610;49.022;12.114;2023-04-19T08:36:47;35.37;;;16.63;;
18793;SDS011;29610;49.022;12.114;2023-04-19T08:39:49;39.33;;;17.73;;
18793;SDS011;29610;49.022;12.114;2023-04-19T08:42:39;30.57;;;16.67;;
18793;SDS011;29610;49.022;12.114;2023-04-19T08:45:28;29.47;;;15.70;;
18793;SDS011;29610;49.022;12.114;2023-04-19T08:48:19;31.77;;;17.20;;
18793;SDS011;29610;49.022;12.114;2023-04-19T08:51:11;33.30;;;17.13;;
18793;SDS011;29610;49.022;12.114;2023-04-19T08:54:06;34.37;;;16.10;;
18793;SDS011;29610;49.022;12.114;2023-04-19T08:56:57;29.87;;;15.13;;
18793;SDS011;29610;49.022;12.114;2023-04-19T08:59:48;28.87;;;15.53;;
18793;SDS011;29610;49.022;12.114;2023-04-19T09:02:45;29.73;;;16.40;;
18793;SDS011;29610;49.022;12.114;2023-04-19T09:05:37;28.33;;;15.77;;
18793;SDS011;29610;49.022;12.114;2023-04-19T09:08:27;30.67;;;15.80;;
18793;SDS011;29610;49.022;12.114;2023-04-19T09:11:18;31.00;;;15.53;;
18793;SDS011;29610;49.022;12.114;2023-04-19T09:14:09;28.70;;;14.83;;
18793;SDS011;29610;49.022;12.114;2023-04-19T09:17:10;36.50;;;16.40;;
18793;SDS011;29610;49.022;12.114;2023-04-19T09:20:06;27.80;;;14.87;;
18793;SDS011;29610;49.022;12.114;2023-04-19T09:23:02;29.70;;;15.73;;
18793;SDS011;29610;49.022;12.114;2023-04-19T09:25:54;32.00;;;16.70;;
18793;SDS011;29610;49.022;12.114;2023-04-19T09:29:06;27.57;;;14.27;;
18793;SDS011;29610;49.022;12.114;2023-04-19T09:32:01;30.33;;;15.40;;
18793;SDS011;29610;49.022;12.114;2023-04-19T09:34:50;29.77;;;14.13;;
18793;SDS011;29610;49.022;12.114;2023-04-19T09:37:42;28.90;;;14.70;;
18793;SDS011;29610;49.022;12.114;2023-04-19T09:41:04;27.83;;;14.20;;
18793;SDS011;29610;49.022;12.114;2023-04-19T09:43:55;24.93;;;11.53;;
18793;SDS011;29610;49.022;12.114;2023-04-19T09:47:21;23.00;;;12.80;;
18793;SDS011;29610;49.022;12.114;2023-04-19T09:50:12;23.60;;;13.63;;
18793;SDS011;29610;49.022;12.114;2023-04-19T09:53:10;24.20;;;12.77;;
18793;SDS011;29610;49.022;12.114;2023-04-19T09:56:03;31.30;;;13.40;;
18793;SDS011;29610;49.022;12.114;2023-04-19T09:58:58;25.90;;;12.33;;
18793;SDS011;29610;49.022;12.114;2023-04-19T10:02:07;27.37;;;14.73;;
18793;SDS011;29610;49.022;12.114;2023-04-19T10:05:05;24.40;;;13.33;;
18793;SDS011;29610;49.022;12.114;2023-04-19T10:08:07;28.27;;;13.27;;
18793;SDS011;29610;49.022;12.114;2023-04-19T10:10:58;26.30;;;14.37;;
18793;SDS011;29610;49.022;12.114;2023-04-19T10:13:51;25.47;;;14.67;;
18793;SDS011;29610;49.022;12.114;2023-04-19T10:16:45;27.40;;;14.97;;
18793;SDS011;29610;49.022;12.114;2023-04-19T10:19:36;28.10;;;15.30;;
18793;SDS011;29610;49.022;12.114;2023-04-19T10:22:28;26.67;;;13.70;;
18793;SDS011;29610;49.022;12.114;2023-04-19T10:25:17;29.73;;;15.90;;
18793;SDS011;29610;49.022;12.114;2023-04-19T10:28:16;28.20;;;15.10;;
18793;SDS011;29610;49.022;12.114;2023-04-19T10:31:09;30.17;;;14.60;;
18793;SDS011;29610;49.022;12.114;2023-04-19T10:34:00;25.03;;;14.20;;
18793;SDS011;29610;49.022;12.114;2023-04-19T10:36:49;30.70;;;14.87;;
18793;SDS011;29610;49.022;12.114;2023-04-19T10:39:40;21.70;;;12.47;;
18793;SDS011;29610;49.022;12.114;2023-04-19T10:46:05;28.00;;;14.60;;
18793;SDS011;29610;49.022;12.114;2023-04-19T10:49:01;31.53;;;13.07;;
18793;SDS011;29610;49.022;12.114;2023-04-19T10:51:52;24.27;;;12.53;;
18793;SDS011;29610;49.022;12.114;2023-04-19T10:54:44;27.40;;;14.00;;
18793;SDS011;29610;49.022;12.114;2023-04-19T10:58:02;26.77;;;12.97;;
18793;SDS011;29610;49.022;12.114;2023-04-19T11:03:52;24.67;;;12.40;;
18793;SDS011;29610;49.022;12.114;2023-04-19T11:06:55;29.83;;;12.93;;
18793;SDS011;29610;49.022;12.114;2023-04-19T11:09:49;29.13;;;12.73;;
18793;SDS011;29610;49.022;12.114;2023-04-19T11:12:42;25.17;;;14.27;;
18793;SDS011;29610;49.022;12.114;2023-04-19T11:15:33;25.23;;;13.27;;
18793;SDS011;29610;49.022;12.114;2023-04-19T11:18:22;22.97;;;12.53;;
18793;SDS011;29610;49.022;12.114;2023-04-19T11:21:18;25.37;;;13.70;;
18793;SDS011;29610;49.022;12.114;2023-04-19T11:24:07;25.83;;;13.70;;
18793;SDS011;29610;49.022;12.114;2023-04-19T11:26:57;27.87;;;12.90;;
18793;SDS011;29610;49.022;12.114;2023-04-19T11:29:47;21.93;;;11.33;;
18793;SDS011;29610;49.022;12.114;2023-04-19T11:32:36;25.97;;;12.80;;
18793;SDS011;29610;49.022;12.114;2023-04-19T11:35:31;22.60;;;13.10;;
18793;SDS011;29610;49.022;12.114;2023-04-19T11:38:21;25.60;;;14.30;;
18793;SDS011;29610;49.022;12.114;2023-04-19T11:41:13;28.73;;;13.17;;
18793;SDS011;29610;49.022;12.114;2023-04-19T11:44:03;27.50;;;14.10;;
18793;SDS011;29610;49.022;12.114;2023-04-19T11:47:01;28.57;;;13.87;;
18793;SDS011;29610;49.022;12.114;2023-04-19T11:50:29;22.07;;;11.43;;
18793;SDS011;29610;49.022;12.114;2023-04-19T11:53:25;24.77;;;12.57;;
18793;SDS011;29610;49.022;12.114;2023-04-19T11:56:15;23.37;;;12.70;;
18793;SDS011;29610;49.022;12.114;2023-04-19T11:59:04;27.40;;;13.93;;
18793;SDS011;29610;49.022;12.114;2023-04-19T12:02:07;24.60;;;12.67;;
18793;SDS011;29610;49.022;12.114;2023-04-19T12:05:05;26.20;;;12.93;;
18793;SDS011;29610;49.022;12.114;2023-04-19T12:08:00;22.70;;;12.13;;
18793;SDS011;29610;49.022;12.114;2023-04-19T12:10:55;25.77;;;13.40;;
18793;SDS011;29610;49.022;12.114;2023-04-19T12:13:45;21.20;;;10.33;;
18793;SDS011;29610;49.022;12.114;2023-04-19T12:16:35;21.63;;;11.47;;
18793;SDS011;29610;49.022;12.114;2023-04-19T12:19:24;17.23;;;9.67;;
18793;SDS011;29610;49.022;12.114;2023-04-19T12:22:14;17.47;;;10.20;;
18793;SDS011;29610;49.022;12.114;2023-04-19T12:25:06;17.30;;;10.20;;
18793;SDS011;29610;49.022;12.114;2023-04-19T12:27:57;18.47;;;9.80;;
18793;SDS011;29610;49.022;12.114;2023-04-19T12:30:49;15.20;;;8.50;;
18793;SDS011;29610;49.022;12.114;2023-04-19T12:33:38;15.80;;;7.93;;
18793;SDS011;29610;49.022;12.114;2023-04-19T12:36:28;14.70;;;8.03;;
18793;SDS011;29610;49.022;12.114;2023-04-19T12:39:17;13.70;;;7.57;;
18793;SDS011;29610;49.022;12.114;2023-04-19T12:42:06;17.13;;;8.43;;
18793;SDS011;29610;49.022;12.114;2023-04-19T12:44:57;12.73;;;7.17;;
18793;SDS011;29610;49.022;12.114;2023-04-19T12:47:46;11.50;;;5.87;;
18793;SDS011;29610;49.022;12.114;2023-04-19T12:50:36;12.50;;;6.43;;
18793;SDS011;29610;49.022;12.114;2023-04-19T12:53:27;13.60;;;7.63;;
18793;SDS011;29610;49.022;12.114;2023-04-19T12:56:16;16.47;;;8.23;;
18793;SDS011;29610;49.022;12.114;2023-04-19T12:59:07;13.30;;;7.40;;
18793;SDS011;29610;49.022;12.114;2023-04-19T13:01:58;12.60;;;6.40;;
18793;SDS011;29610;49.022;12.114;2023-04-19T13:04:47;13.83;;;7.37;;
18793;SDS011;29610;49.022;12.114;2023-04-19T13:07:37;11.27;;;5.90;;
18793;SDS011;29610;49.022;12.114;2023-04-19T13:10:26;15.80;;;8.43;;
18793;SDS011;29610;49.022;12.114;2023-04-19T13:13:14;13.60;;;7.93;;
18793;SDS011;29610;49.022;12.114;2023-04-19T13:16:04;14.80;;;6.97;;
18793;SDS011;29610;49.022;12.114;2023-04-19T13:18:55;18.00;;;6.47;;
18793;SDS011;29610;49.022;12.114;2023-04-19T13:21:44;12.83;;;6.93;;
18793;SDS011;29610;49.022;12.114;2023-04-19T13:24:33;15.17;;;7.40;;
18793;SDS011;29610;49.022;12.114;2023-04-19T13:27:22;14.53;;;7.77;;
18793;SDS011;29610;49.022;12.114;2023-04-19T13:30:13;12.03;;;6.10;;
18793;SDS011;29610;49.022;12.114;2023-04-19T13:33:03;16.77;;;7.93;;
18793;SDS011;29610;49.022;12.114;2023-04-19T13:35:56;13.30;;;6.53;;
18793;SDS011;29610;49.022;12.114;2023-04-19T13:38:45;15.37;;;8.23;;
18793;SDS011;29610;49.022;12.114;2023-04-19T13:41:35;16.63;;;8.30;;
18793;SDS011;29610;49.022;12.114;2023-04-19T13:44:24;15.43;;;7.90;;
18793;SDS011;29610;49.022;12.114;2023-04-19T13:47:13;14.10;;;6.73;;
18793;SDS011;29610;49.022;12.114;2023-04-19T13:50:02;16.13;;;7.90;;
18793;SDS011;29610;49.022;12.114;2023-04-19T13:52:54;14.43;;;7.83;;
18793;SDS011;29610;49.022;12.114;2023-04-19T13:55:52;15.33;;;7.23;;
18793;SDS011;29610;49.022;12.114;2023-04-19T13:58:41;14.57;;;7.40;;
18793;SDS011;29610;49.022;12.114;2023-04-19T14:01:30;16.33;;;7.47;;
18793;SDS011;29610;49.022;12.114;2023-04-19T14:04:21;13.73;;;6.90;;
18793;SDS011;29610;49.022;12.114;2023-04-19T14:07:11;16.27;;;8.13;;
18793;SDS011;29610;49.022;12.114;2023-04-19T14:10:03;13.70;;;6.13;;
18793;SDS011;29610;49.022;12.114;2023-04-19T14:12:53;15.53;;;8.17;;
18793;SDS011;29610;49.022;12.114;2023-04-19T14:15:42;16.07;;;7.57;;
18793;SDS011;29610;49.022;12.114;2023-04-19T14:18:32;11.77;;;6.37;;
18793;SDS011;29610;49.022;12.114;2023-04-19T14:21:21;13.13;;;6.40;;
18793;SDS011;29610;49.022;12.114;2023-04-19T14:24:12;16.97;;;7.50;;
18793;SDS011;29610;49.022;12.114;2023-04-19T14:27:03;22.13;;;10.63;;
18793;SDS011;29610;49.022;12.114;2023-04-19T14:29:57;12.20;;;6.47;;
18793;SDS011;29610;49.022;12.114;2023-04-19T14:32:47;12.47;;;6.13;;
18793;SDS011;29610;49.022;12.114;2023-04-19T14:35:36;16.27;;;7.20;;
18793;SDS011;29610;49.022;12.114;2023-04-19T14:38:25;15.70;;;6.70;;
18793;SDS011;29610;49.022;12.114;2023-04-19T14:41:14;12.97;;;6.10;;
18793;SDS011;29610;49.022;12.114;2023-04-19T14:44:05;10.60;;;5.37;;
18793;SDS011;29610;49.022;12.114;2023-04-19T14:46:54;15.93;;;6.60;;
18793;SDS011;29610;49.022;12.114;2023-04-19T14:49:43;14.33;;;6.57;;
18793;SDS011;29610;49.022;12.114;2023-04-19T14:52:32;12.60;;;7.00;;
18793;SDS011;29610;49.022;12.114;2023-04-19T14:55:21;16.50;;;6.10;;
18793;SDS011;29610;49.022;12.114;2023-04-19T14:58:12;12.43;;;6.10;;
18793;SDS011;29610;49.022;12.114;2023-04-19T15:01:10;21.23;;;6.83;;
18793;SDS011;29610;49.022;12.114;2023-04-19T15:03:59;12.73;;;5.90;;
18793;SDS011;29610;49.022;12.114;2023-04-19T15:06:49;13.20;;;6.43;;
18793;SDS011;29610;49.022;12.114;2023-04-19T15:09:39;13.80;;;5.90;;
18793;SDS011;29610;49.022;12.114;2023-04-19T15:12:28;11.37;;;6.03;;
18793;SDS011;29610;49.022;12.114;2023-04-19T15:15:17;11.93;;;5.80;;
18793;SDS011;29610;49.022;12.114;2023-04-19T15:18:08;12.87;;;6.50;;
18793;SDS011;29610;49.022;12.114;2023-04-19T15:20:57;12.47;;;6.47;;
18793;SDS011;29610;49.022;12.114;2023-04-19T15:23:46;12.10;;;6.07;;
18793;SDS011;29610;49.022;12.114;2023-04-19T15:26:36;13.40;;;5.90;;
18793;SDS011;29610;49.022;12.114;2023-04-19T15:29:26;10.97;;;5.03;;
18793;SDS011;29610;49.022;12.114;2023-04-19T15:32:15;12.90;;;6.70;;
18793;SDS011;29610;49.022;12.114;2023-04-19T15:35:06;13.17;;;6.03;;
18793;SDS011;29610;49.022;12.114;2023-04-19T15:37:56;11.57;;;6.47;;
18793;SDS011;29610;49.022;12.114;2023-04-19T15:40:45;12.27;;;6.30;;
18793;SDS011;29610;49.022;12.114;2023-04-19T15:43:34;13.00;;;6.37;;
18793;SDS011;29610;49.022;12.114;2023-04-19T15:46:23;13.90;;;5.97;;
18793;SDS011;29610;49.022;12.114;2023-04-19T15:49:12;11.80;;;5.90;;
18793;SDS011;29610;49.022;12.114;2023-04-19T15:52:03;11.10;;;4.97;;
18793;SDS011;29610;49.022;12.114;2023-04-19T15:54:53;10.17;;;4.27;;
18793;SDS011;29610;49.022;12.114;2023-04-19T15:57:42;10.70;;;3.80;;
18793;SDS011;29610;49.022;12.114;2023-04-19T16:00:35;9.30;;;3.33;;
18793;SDS011;29610;49.022;12.114;2023-04-19T16:03:24;9.77;;;3.00;;
18793;SDS011;29610;49.022;12.114;2023-04-19T16:06:14;11.10;;;3.37;;
18793;SDS011;29610;49.022;12.114;2023-04-19T16:09:06;6.80;;;2.77;;
18793;SDS011;29610;49.022;12.114;2023-04-19T16:11:55;10.10;;;3.33;;
18793;SDS011;29610;49.022;12.114;2023-04-19T16:14:44;9.17;;;3.70;;
18793;SDS011;29610;49.022;12.114;2023-04-19T16:17:33;8.90;;;3.70;;
18793;SDS011;29610;49.022;12.114;2023-04-19T16:20:23;8.30;;;2.80;;
18793;SDS011;29610;49.022;12.114;2023-04-19T16:23:12;8.53;;;3.10;;
18793;SDS011;29610;49.022;12.114;2023-04-19T16:26:05;9.53;;;2.90;;
18793;SDS011;29610;49.022;12.114;2023-04-19T16:28:55;10.00;;;3.20;;
18793;SDS011;29610;49.022;12.114;2023-04-19T16:31:46;7.53;;;2.60;;
18793;SDS011;29610;49.022;12.114;2023-04-19T16:34:38;7.97;;;2.83;;
18793;SDS011;29610;49.022;12.114;2023-04-19T16:37:27;7.60;;;2.60;;
18793;SDS011;29610;49.022;12.114;2023-04-19T16:40:16;7.47;;;2.63;;